Stunt Ranch Reserve, Santa Monica Mtns, California Weather observations

Data are for 10 minute period ending at time listed.
 Day   Time   Solar   Ave.   Ave.  Ave.  Vector  Max.   Baro.   Total    
  of    of     Rad.   Air    Rel.  Wind   Wind   Wind  Press.  Precip.   
Year   Day            Temp.  Hum.  Speed  Dir.   Gust                    
2014   (PST)  Kw/m2    F      %     mph   deg.    mph    mb.     in.     
-------------------------------------------------------------------------
 298    1:10   0.00   64.3    27    1.8   132     3.7   969.9    0.00 
 298    1:20   0.00   63.9    29    3.8   268     6.6   969.9    0.00 
 298    1:30   0.00   63.3    30    2.4   278     7.2   969.9    0.00 
 298    1:40   0.00   61.6    32    3.4   285     8.3   970.2    0.00 
 298    1:50   0.00   57.8    36    3.8   125     5.9   970.2    0.00 
 298    2:00   0.00   60.1    34    3.6   126     4.3   969.9    0.00 
 298    2:10   0.00   62.1    32    2.4   109     4.6   969.5    0.00 
 298    2:20   0.00   63.3    31    3.7   268     7.5   969.5    0.00 
 298    2:30   0.00   61.0    33    3.2   140     6.8   969.5    0.00 
 298    2:40   0.00   58.3    36    2.5   138     3.7   969.5    0.00 
 298    2:50   0.00   61.1    33    3.3   113     5.0   969.2    0.00 
 298    3:00   0.00   62.5    32    3.6   288     6.3   969.2    0.00 
 298    3:10   0.00   59.9    35    2.6   170     5.7   969.5    0.00 
 298    3:20   0.00   58.5    37    2.1   122     3.4   969.5    0.00 
 298    3:30   0.00   59.4    37    2.8   118     5.5   969.2    0.00 
 298    3:40   0.00   60.2    36    1.3   163     2.6   969.2    0.00 
 298    3:50   0.00   61.1    36    1.3   225     3.5   969.2    0.00 
 298    4:00   0.00   59.5    37    1.5   300     2.7   969.2    0.00 
 298    4:10   0.00   59.0    38    2.0   190     4.7   969.2    0.00 
 298    4:20   0.00   59.4    38    0.7   303     3.0   969.5    0.00 
 298    4:30   0.00   59.0    39    1.1   202     2.9   969.5    0.00 
 298    4:40   0.00   58.8    39    0.2    64     1.4   969.5    0.00 
 298    4:50   0.00   58.5    40    0.9   246     2.1   969.5    0.00 
 298    5:00   0.00   58.2    41    1.2   115     2.7   969.9    0.00 
 298    5:10   0.00   58.5    40    1.0   106     2.8   969.9    0.00 
 298    5:20   0.00   58.8    40    1.4   132     2.8   969.9    0.00 
 298    5:30   0.00   58.9    41    1.3   131     2.9   969.9    0.00 
 298    5:40   0.00   58.3    42    2.0   130     3.9   970.2    0.00 
 298    5:50   0.00   58.9    42    0.7   157     2.3   970.2    0.00 
 298    6:00   0.00   58.7    42    2.1   120     4.1   970.2    0.00 
 298    6:10   0.01   60.4    42    1.4   150     5.4   970.2    0.00 
 298    6:20   0.01   60.4    40    1.9   185     5.6   970.2    0.00 
 298    6:30   0.01   60.7    41    1.6   282     2.9   970.5    0.00 
 298    6:40   0.02   60.1    41    0.7   173     1.8   970.5    0.00 
 298    6:50   0.03   59.8    40    1.0   206     2.5   970.5    0.00 
 298    7:00   0.05   59.7    42    1.2   292     2.8   970.5    0.00 
 298    7:10   0.07   60.5    40    1.6   200     2.9   970.9    0.00 
 298    7:20   0.15   61.9    39    1.7   128     3.6   970.9    0.00 
 298    7:30   0.24   65.4    33    2.2   153     4.4   970.9    0.00 
 298    7:40   0.25   68.5    31    1.8    85     3.6   970.9    0.00 
 298    7:50   0.29   69.5    30    1.0   237     3.3   970.9    0.00 
 298    8:00   0.28   70.7    30    1.6   316     3.7   971.2    0.00 
 298    8:10   0.35   69.5    30    1.0     6     3.3   971.2    0.00 
 298    8:20   0.24   69.1    31    1.1    25     2.8   971.2    0.00 
 298    8:30   0.33   69.3    30    1.9   100     3.4   971.2    0.00 
 298    8:40   0.47   71.9    28    0.8   314     2.5   971.2    0.00 
 298    8:50   0.48   75.9    26    2.4   278     4.5   970.9    0.00 
 298    9:00   0.48   76.6    25    2.9   269     5.3   971.2    0.00 
 298    9:10   0.53   76.3    26    0.7    23     2.1   970.9    0.00 
 298    9:20   0.57   77.4    25    2.2   287     4.1   970.9    0.00 
 298    9:30   0.55   78.9    24    2.6   279     5.3   970.9    0.00 
 298    9:40   0.56   78.8    24    1.9   293     4.7   971.2    0.00 
 298    9:50   0.58   78.6    24    2.9   294     6.7   971.2    0.00 
 298   10:00   0.58   79.6    23    2.5   287     4.5   971.2    0.00 
 298   10:10   0.49   79.5    23    3.5   274     6.6   971.6    0.00 
 298   10:20   0.62   81.1    21    3.2   278     7.7   971.2    0.00 
 298   10:30   0.64   82.3    19    3.8   283     9.2   971.2    0.00 
 298   10:40   0.60   82.4    19    4.0   278    10.9   971.6    0.00 
 298   10:50   0.65   82.6    20    3.7   284     9.3   971.6    0.00 
 298   11:00   0.68   82.9    20    5.2   282    13.2   971.6    0.00 
 298   11:10   0.69   81.9    22    4.5   284    12.9   971.6    0.00 
 298   11:20   0.60   81.8    21    2.6   288     9.2   971.6    0.00 
 298   11:30   0.51   81.4    20    2.8   284     9.1   971.6    0.00 
 298   11:40   0.67   81.1    20    3.1   305     8.2   971.2    0.00 
 298   11:50   0.59   82.2    18    3.9   298    12.9   971.2    0.00 
 298   12:00   0.58   82.4    17    2.4   310     7.6   971.2    0.00 
 298   12:10   0.72   83.8    16    3.2   321     7.0   970.9    0.00 
 298   12:20   0.52   85.2    15    3.2   315     8.5   970.9    0.00 
 298   12:30   0.56   85.7    15    2.9   289     8.2   970.9    0.00 
 298   12:40   0.42   85.5    15    1.5   315     5.2   970.9    0.00 
 298   12:50   0.68   86.0    16    2.0   310     7.5   970.5    0.00 
 298   13:00   0.69   86.8    17    4.8   287    11.9   970.5    0.00 
 298   13:10   0.73   87.8    15    1.9   281     6.1   970.9    0.00 
 298   13:20   0.67   88.1    15    2.2   302     7.1   970.5    0.00 
 298   13:30   0.62   87.7    16    1.5   311     8.0   970.5    0.00 
 298   13:40   0.58   86.1    19    3.4   301    11.0   970.5    0.00 
 298   13:50   0.52   85.5    20    2.8   287    10.7   970.5    0.00 
 298   14:00   0.34   84.0    20    3.6   297    10.0   970.5    0.00 
 298   14:10   0.27   82.3    23    3.0   286     8.3   970.5    0.00 
 298   14:20   0.29   82.7    24    2.4   289     6.9   970.5    0.00 
 298   14:30   0.40   82.7    26    2.5   304     5.9   970.2    0.00 
 298   14:40   0.43   82.0    28    2.8   282     5.6   970.2    0.00 
 298   14:50   0.40   83.0    27    2.2   288     5.8   969.9    0.00 
 298   15:00   0.37   83.6    26    2.7   304     6.1   969.9    0.00 
 298   15:10   0.34   83.6    26    2.3   294     7.2   969.9    0.00 
 298   15:20   0.31   82.1    29    3.5   306    12.9   969.9    0.00 
 298   15:30   0.28   80.5    31    2.4   288     7.2   970.2    0.00 
 298   15:40   0.25   79.8    34    2.7   316     8.7   969.9    0.00 
 298   15:50   0.22   78.7    37    2.1   304     7.1   969.9    0.00 
 298   16:00   0.19   78.0    39    1.2   307     4.7   969.5    0.00 
 298   16:10   0.15   77.2    42    1.8   306     6.9   969.5    0.00 
 298   16:20   0.13   75.6    44    1.7   287     5.5   969.5    0.00 
 298   16:30   0.05   73.4    47    1.5   293     4.5   969.2    0.00 
 298   16:40   0.03   71.8    49    1.7   295     5.8   968.8    0.00 
 298   16:50   0.01   70.5    53    1.0   300     4.3   968.8    0.00 
 298   17:00   0.01   69.6    56    1.1   297     5.5   968.8    0.00 
 298   17:10   0.01   68.5    58    3.1   267     7.2   969.2    0.00 
 298   17:20   0.00   67.8    59    2.2   278     5.6   969.2    0.00 
 298   17:30   0.00   66.6    61    3.1   258     6.6   969.5    0.00 
 298   17:40   0.00   65.9    62    2.1   247     3.7   969.2    0.00 
 298   17:50   0.00   64.6    63    2.6   271     5.5   969.5    0.00 
 298   18:00   0.00   64.4    66    2.3   241     4.6   969.5    0.00 
 298   18:10   0.00   63.7    68    2.6   267     5.4   969.9    0.00 
 298   18:20   0.00   63.2    71    2.1   261     4.6   969.9    0.00 
 298   18:30   0.00   63.0    72    2.2   243     4.2   969.9    0.00 
 298   18:40   0.00   62.7    73    2.3   229     3.7   970.2    0.00 
 298   18:50   0.00   62.1    73    2.2   243     3.9   970.2    0.00 
 298   19:00   0.00   62.0    73    3.1   207     4.7   970.5    0.00 
 298   19:10   0.00   61.8    73    1.7   226     3.7   970.5    0.00 
 298   19:20   0.00   61.6    73    1.4   215     2.9   970.5    0.00 
 298   19:30   0.00   61.3    70    0.6   181     2.3   970.5    0.00 
 298   19:40   0.00   61.2    68    1.4   139     2.6   970.2    0.00 
 298   19:50   0.00   61.5    67    1.8   303     2.9   970.2    0.00 
 298   20:00   0.00   61.6    70    0.7   266     2.8   970.5    0.00 
 298   20:10   0.00   62.0    71    1.1   184     4.1   970.2    0.00 
 298   20:20   0.00   61.8    71    1.1   269     3.7   970.2    0.00 
 298   20:30   0.00   61.8    74    1.2   262     2.4   970.5    0.00 
 298   20:40   0.00   61.4    75    1.0   274     2.9   970.5    0.00 
 298   20:50   0.00   61.2    77    1.1   318     2.7   970.5    0.00 
 298   21:00   0.00   60.5    79    0.7   273     2.9   970.5    0.00 
 298   21:10   0.00   60.4    81    0.5   150     1.7   970.5    0.00 
 298   21:20   0.00   60.4    82    0.7   162     2.0   970.5    0.00 
 298   21:30   0.00   60.3    82    1.6   146     2.3   970.9    0.00 
 298   21:40   0.00   60.1    83    2.3   131     3.1   970.9    0.00 
 298   21:50   0.00   60.3    82    2.3   197     4.0   970.5    0.00 
 298   22:00   0.00   61.4    77    2.9   206     4.8   970.5    0.00 
 298   22:10   0.00   62.1    73    3.3   199     5.1   970.5    0.00 
 298   22:20   0.00   61.9    72    2.1   252     3.7   970.5    0.00 
 298   22:30   0.00   62.0    69    0.4   280     1.5   970.2    0.00 
 298   22:40   0.00   61.4    68    0.7   290     1.6   970.2    0.00 
 298   22:50   0.00   61.0    68    0.2    70     1.9   970.2    0.00 
 298   23:00   0.00   60.2    72    0.6    35     1.8   970.2    0.00 
 298   23:10   0.00   60.1    68    1.9   145     3.4   970.2    0.00 
 298   23:20   0.00   60.5    67    0.8   186     2.6   969.9    0.00 
 298   23:30   0.00   61.8    66    0.5   282     1.4   969.9    0.00 
 298   23:40   0.00   62.2    64    0.2   301     0.9   969.9    0.00 
 298   23:50   0.00   62.2    64    0.0   314     0.9   969.9    0.00 
 299    0:00   0.00   61.7    64    0.0     0     0.0   969.9    0.00 
 299    0:10   0.00   61.0    65    2.3   175     4.1   969.9    0.00 
 299    0:20   0.00   61.6    64    1.5   251     3.1   969.9    0.00 
 299    0:30   0.00   61.1    65    0.6   145     1.8   969.9    0.00 
 299    0:40   0.00   60.3    66    1.1   216     3.8   969.9    0.00 
 299    0:50   0.00   59.9    67    2.3   115     4.0   969.9    0.00 
 299    1:00   0.00   61.0    65    2.3   203     3.9   969.9    0.00 

Return to Stunt Ranch Reserve graphs page.


Western Regional Climate Center,wrcc@dri.edu